Terminal Aerodrome Forecast
Issued by NWS

Home | Current Version | Previous Version | Text Only | Print | Product List | Glossary On
Versions: 1 2 3 4 5 6 7 8 9 10 11 12 13 14 15 16 17 18 19 20 21 22 23
000
FTUS43 KIND 280812 AAA
TAFBMG
TAF AMD
KBMG 280812Z 2808/2906 18005KT P6SM OVC200
     FM281400 21006KT P6SM BKN090
     FM281700 23007KT P6SM VCTS BKN070CB
     FM282100 24009KT P6SM VCTS SCT090CB
     FM290000 27008KT P6SM BKN150
      AMD LTD TO CLD VIS AND WIND TIL 281300=

USA.gov is the U.S. government's official web portal to all federal, state and local government web resources and services.